Time;durP1;ratioP1;P1;durP2;ratioP2;P2;SDS_P1;SDS_P2;PMS_P1;PMS_P2;Temp;Humidity;BMP_temperature;BMP_pressure;BME280_temperature;BME280_humidity;BME280_pressure;Samples;Min_cycle;Max_cycle;Signal;HPM_P1;HPM_P2
2023/04/27 00:01:16;;;;;;;3.95;2.40;;;;;;;10.26;48.44;101994.22;5095773;28;20103;-66
2023/04/27 00:03:44;;;;;;;6.53;2.70;;;;;;;10.25;48.31;101987.16;5099034;28;20470;-66
2023/04/27 00:06:12;;;;;;;5.72;3.13;;;;;;;10.24;48.55;101990.06;5103225;28;20048;-66
2023/04/27 00:08:40;;;;;;;6.50;2.95;;;;;;;10.23;48.49;101991.06;5104021;28;20064;-66
2023/04/27 00:11:08;;;;;;;6.20;2.60;;;;;;;10.22;48.48;101995.63;5102710;28;20157;-66
2023/04/27 00:13:37;;;;;;;6.30;2.55;;;;;;;10.21;48.66;101999.31;5096446;28;20056;-66
2023/04/27 00:16:06;;;;;;;3.47;2.30;;;;;;;10.19;48.24;101993.28;5095054;28;20052;-67
2023/04/27 00:18:34;;;;;;;4.65;2.40;;;;;;;10.19;48.25;101990.59;5097804;28;20095;-66
2023/04/27 00:21:01;;;;;;;6.70;2.30;;;;;;;10.18;47.97;101990.78;5087779;28;20378;-66
2023/04/27 00:23:29;;;;;;;4.25;2.17;;;;;;;10.15;48.30;101992.00;5103076;28;20143;-66
2023/04/27 00:25:57;;;;;;;5.85;2.40;;;;;;;10.14;48.40;101998.38;5090353;28;20112;-66
2023/04/27 00:28:25;;;;;;;5.03;2.20;;;;;;;10.12;48.35;101995.06;5102028;28;20048;-66
2023/04/27 00:30:54;;;;;;;9.98;2.78;;;;;;;10.10;48.46;101997.94;5097839;28;20068;-66
2023/04/27 00:33:22;;;;;;;5.45;2.60;;;;;;;10.10;48.40;101997.09;5102964;28;20044;-66
2023/04/27 00:35:49;;;;;;;6.18;2.45;;;;;;;10.08;48.38;102008.03;5102033;28;20048;-66
2023/04/27 00:38:17;;;;;;;5.97;2.95;;;;;;;10.07;48.38;101992.13;5100817;28;20048;-66
2023/04/27 00:40:45;;;;;;;5.00;2.50;;;;;;;10.06;48.45;101995.81;5098266;28;20048;-66
2023/04/27 00:43:13;;;;;;;6.47;2.75;;;;;;;10.04;48.61;101996.00;5103118;28;20048;-66
2023/04/27 00:45:42;;;;;;;6.38;2.33;;;;;;;10.02;48.28;101990.00;5102988;28;20138;-66
2023/04/27 00:48:12;;;;;;;5.22;2.58;;;;;;;10.01;48.65;101992.88;5101326;28;20044;-66
2023/04/27 00:50:40;;;;;;;7.32;3.08;;;;;;;10.00;48.26;101997.41;5093403;28;20521;-66
2023/04/27 00:53:08;;;;;;;7.82;2.95;;;;;;;9.97;48.88;101992.44;5094203;28;20048;-66
2023/04/27 00:55:36;;;;;;;4.95;2.70;;;;;;;9.97;48.54;101999.66;5088399;28;20049;-66
2023/04/27 00:58:03;;;;;;;4.63;2.38;;;;;;;9.96;48.48;101988.06;5098330;28;20069;-66
2023/04/27 01:00:31;;;;;;;6.88;2.70;;;;;;;9.95;48.43;101999.84;5083505;28;20051;-66
2023/04/27 01:03:00;;;;;;;6.63;2.13;;;;;;;9.92;48.42;101997.53;5092722;28;20054;-66
2023/04/27 01:05:30;;;;;;;9.52;2.70;;;;;;;9.92;48.27;101994.00;5090088;28;20297;-66
2023/04/27 01:07:59;;;;;;;4.93;2.25;;;;;;;9.93;48.66;101996.50;5087108;28;20089;-67
2023/04/27 01:10:27;;;;;;;5.63;2.47;;;;;;;9.91;48.30;101995.03;5093452;28;20071;-65
2023/04/27 01:12:56;;;;;;;7.20;2.95;;;;;;;9.91;48.72;101989.66;5090399;28;20068;-66
2023/04/27 01:15:24;;;;;;;6.93;2.55;;;;;;;9.90;48.73;101996.06;5091626;28;20267;-67
2023/04/27 01:17:57;;;;;;;4.25;2.33;;;;;;;9.88;48.77;101993.56;5092674;28;20139;-66
2023/04/27 01:20:29;;;;;;;4.53;2.30;;;;;;;9.86;48.89;101997.44;5102102;28;20063;-66
2023/04/27 01:22:59;;;;;;;6.93;2.45;;;;;;;9.83;48.75;101995.97;5101380;28;20131;-66
2023/04/27 01:25:28;;;;;;;6.95;2.90;;;;;;;9.84;48.42;102002.19;5101402;28;20085;-65
2023/04/27 01:27:56;;;;;;;6.18;2.83;;;;;;;9.83;49.15;101998.66;5100960;28;20090;-66
2023/04/27 01:30:23;;;;;;;5.07;2.80;;;;;;;9.83;48.85;102001.34;5102246;28;20107;-65
2023/04/27 01:32:51;;;;;;;5.93;2.47;;;;;;;9.82;48.97;101997.00;5100344;28;20134;-66
2023/04/27 01:35:19;;;;;;;6.63;3.10;;;;;;;9.81;48.88;101998.03;5101132;28;20119;-66
2023/04/27 01:37:47;;;;;;;6.97;2.80;;;;;;;9.78;48.53;101980.44;5102403;28;20163;-66
2023/04/27 01:40:15;;;;;;;4.55;2.58;;;;;;;9.81;48.47;101991.81;5097979;28;20183;-66
2023/04/27 01:42:44;;;;;;;4.72;2.38;;;;;;;9.80;48.50;101996.34;5100859;28;20111;-66
2023/04/27 01:45:12;;;;;;;8.18;3.05;;;;;;;9.78;48.82;101988.50;5097247;28;20127;-66
2023/04/27 01:47:40;;;;;;;5.85;2.78;;;;;;;9.77;48.43;101994.03;5091178;28;20051;-66
2023/04/27 01:50:08;;;;;;;9.38;2.55;;;;;;;9.76;48.64;101992.38;5089115;28;20056;-66
2023/04/27 01:52:36;;;;;;;5.00;2.63;;;;;;;9.74;49.06;101987.19;5099389;28;20060;-66
2023/04/27 01:55:05;;;;;;;6.28;2.50;;;;;;;9.74;48.59;101987.19;5099357;28;20401;-66
2023/04/27 01:57:32;;;;;;;5.53;2.75;;;;;;;9.75;48.58;101982.66;5101886;28;20052;-66
2023/04/27 02:00:02;;;;;;;7.78;3.28;;;;;;;9.73;48.38;101984.72;5094286;28;20055;-66
2023/04/27 02:02:29;;;;;;;7.97;2.65;;;;;;;9.72;48.73;101983.03;5092616;28;20255;-66
2023/04/27 02:04:57;;;;;;;3.90;2.10;;;;;;;9.73;48.98;101982.03;5096580;28;20049;-66
2023/04/27 02:07:26;;;;;;;5.22;2.67;;;;;;;9.70;48.61;101980.53;5085840;28;20044;-66
2023/04/27 02:09:54;;;;;;;9.23;3.30;;;;;;;9.68;49.21;101979.06;5085859;28;20056;-66
2023/04/27 02:12:22;;;;;;;6.57;2.90;;;;;;;9.66;48.64;101981.94;5091172;28;20036;-66
2023/04/27 02:14:50;;;;;;;3.72;2.25;;;;;;;9.64;48.97;101975.94;5090703;28;20067;-66
2023/04/27 02:17:19;;;;;;;4.70;2.60;;;;;;;9.62;48.98;101977.97;5100348;28;20074;-66
2023/04/27 02:19:46;;;;;;;7.15;2.88;;;;;;;9.62;49.11;101983.34;5094049;28;20048;-66
2023/04/27 02:22:15;;;;;;;6.60;2.67;;;;;;;9.60;48.86;101977.31;5095600;28;20039;-66
2023/04/27 02:24:42;;;;;;;9.30;2.33;;;;;;;9.60;48.68;101974.66;5086600;28;20056;-66
2023/04/27 02:27:10;;;;;;;5.50;2.78;;;;;;;9.58;49.15;101965.94;5093042;28;20068;-66
2023/04/27 02:29:38;;;;;;;6.30;3.00;;;;;;;9.57;49.46;101963.44;5080895;28;20095;-67
2023/04/27 02:32:07;;;;;;;4.90;2.60;;;;;;;9.56;49.19;101962.63;5092221;28;20044;-66
2023/04/27 02:34:36;;;;;;;3.92;2.08;;;;;;;9.55;48.61;101960.94;5099695;28;20081;-66
2023/04/27 02:37:03;;;;;;;7.57;3.38;;;;;;;9.53;49.01;101963.00;5099153;28;20094;-66
2023/04/27 02:39:31;;;;;;;5.78;2.85;;;;;;;9.51;49.02;101965.03;5099689;28;20046;-66
2023/04/27 02:41:59;;;;;;;5.25;2.63;;;;;;;9.51;49.28;101956.16;5095246;28;20224;-67
2023/04/27 02:44:27;;;;;;;5.20;2.67;;;;;;;9.51;48.79;101958.84;5098218;28;20052;-65
2023/04/27 02:46:54;;;;;;;6.28;3.22;;;;;;;9.50;49.20;101965.22;5093093;28;20102;-65
2023/04/27 02:49:22;;;;;;;3.53;2.50;;;;;;;9.48;49.55;101965.41;5099973;28;20047;-66
2023/04/27 02:51:51;;;;;;;6.40;2.80;;;;;;;9.46;49.57;101962.91;5099053;28;20707;-66
2023/04/27 02:54:19;;;;;;;7.82;3.08;;;;;;;9.48;49.09;101967.25;5095737;28;20170;-66
2023/04/27 02:56:47;;;;;;;4.88;2.88;;;;;;;9.46;49.54;101976.31;5100425;28;20135;-66
2023/04/27 02:59:14;;;;;;;4.05;2.42;;;;;;;9.44;49.14;101972.16;5099140;28;20044;-66
2023/04/27 03:01:42;;;;;;;4.60;2.80;;;;;;;9.42;49.15;101966.16;5086578;28;20115;-66
2023/04/27 03:04:12;;;;;;;6.78;2.90;;;;;;;9.41;48.97;101970.69;5097380;28;20066;-66
2023/04/27 03:06:41;;;;;;;7.88;3.15;;;;;;;9.40;49.68;101965.50;5098467;28;20064;-66
2023/04/27 03:09:10;;;;;;;8.95;3.30;;;;;;;9.37;49.69;101958.66;5099700;28;20044;-66
2023/04/27 03:11:38;;;;;;;6.38;2.72;;;;;;;9.38;49.03;101959.50;5091197;28;20135;-66
2023/04/27 03:14:06;;;;;;;6.82;2.72;;;;;;;9.26;49.04;101948.41;5092873;28;20127;-66
2023/04/27 03:16:34;;;;;;;7.32;2.65;;;;;;;9.34;49.53;101958.19;5091726;28;20075;-65
2023/04/27 03:19:02;;;;;;;4.55;2.55;;;;;;;9.34;49.62;101956.34;5095161;28;20055;-66
2023/04/27 03:21:30;;;;;;;8.85;3.40;;;;;;;9.32;49.03;101955.72;5098624;28;20586;-66
2023/04/27 03:23:58;;;;;;;8.80;3.55;;;;;;;9.23;49.71;101946.09;5094465;28;20696;-66
2023/04/27 03:26:27;;;;;;;5.70;2.83;;;;;;;9.32;49.08;101957.56;5095246;28;20108;-65
2023/04/27 03:28:55;;;;;;;8.82;3.10;;;;;;;9.31;48.92;101966.63;5099376;28;20044;-66
2023/04/27 03:31:23;;;;;;;6.85;3.85;;;;;;;9.31;49.60;101967.44;5090867;28;20040;-66
2023/04/27 03:33:51;;;;;;;7.97;3.15;;;;;;;9.29;49.40;101971.34;5098886;28;20048;-66
2023/04/27 03:36:18;;;;;;;6.88;3.30;;;;;;;9.28;49.94;101970.50;5103232;28;20067;-66
2023/04/27 03:38:46;;;;;;;6.32;2.95;;;;;;;9.27;49.74;101973.38;5095727;28;20048;-66
2023/04/27 03:41:14;;;;;;;10.57;3.58;;;;;;;9.27;49.34;101971.53;5103610;28;20397;-65
2023/04/27 03:43:43;;;;;;;6.72;3.35;;;;;;;9.26;49.31;101985.97;5103081;28;20054;-65
2023/04/27 03:46:11;;;;;;;8.43;4.03;;;;;;;9.24;49.38;101979.13;5100017;28;20051;-66
2023/04/27 03:48:38;;;;;;;6.85;3.00;;;;;;;9.24;49.37;101979.13;5103427;28;20106;-66
2023/04/27 03:51:07;;;;;;;7.22;3.38;;;;;;;9.22;49.78;101975.78;5102619;28;20074;-66
2023/04/27 03:53:35;;;;;;;8.70;4.85;;;;;;;9.23;49.91;101974.78;5103843;28;20048;-66
2023/04/27 03:56:03;;;;;;;6.60;3.25;;;;;;;9.21;49.68;101976.81;5101624;28;20139;-66
2023/04/27 03:58:30;;;;;;;6.32;3.00;;;;;;;9.19;49.19;101976.97;5103757;28;20047;-66
2023/04/27 04:01:00;;;;;;;7.20;3.40;;;;;;;9.19;49.43;101978.84;5103284;28;20054;-65
2023/04/27 04:03:27;;;;;;;7.13;3.30;;;;;;;9.18;49.62;101982.53;5102635;28;20131;-66
2023/04/27 04:05:55;;;;;;;7.75;3.42;;;;;;;9.15;49.88;101983.75;5101457;28;20242;-66
2023/04/27 04:08:23;;;;;;;4.65;3.25;;;;;;;9.13;49.29;101978.56;5099040;28;20362;-66
2023/04/27 04:10:51;;;;;;;7.38;4.10;;;;;;;9.11;49.35;101974.41;5101939;28;20048;-66
2023/04/27 04:13:19;;;;;;;9.27;4.22;;;;;;;9.10;49.43;101970.03;5100689;28;20111;-66
2023/04/27 04:15:46;;;;;;;7.57;3.38;;;;;;;9.01;49.24;101968.47;5101287;28;20040;-66
2023/04/27 04:18:15;;;;;;;7.70;3.63;;;;;;;9.06;49.83;101980.31;5090959;28;20059;-66
2023/04/27 04:20:43;;;;;;;8.63;4.32;;;;;;;9.03;50.27;101975.31;5094902;28;20039;-66
2023/04/27 04:23:11;;;;;;;11.32;3.28;;;;;;;9.05;50.45;101977.81;5086274;28;20153;-66
2023/04/27 04:25:39;;;;;;;4.75;3.28;;;;;;;9.05;49.39;101988.53;5101811;28;20047;-66
2023/04/27 04:28:07;;;;;;;3.97;3.05;;;;;;;9.02;49.73;101989.75;5083664;28;20092;-66
2023/04/27 04:30:34;;;;;;;5.55;3.35;;;;;;;9.00;50.20;101986.41;5098011;28;20108;-66
2023/04/27 04:33:02;;;;;;;9.45;3.50;;;;;;;9.01;49.88;101987.25;5101764;28;20048;-66
2023/04/27 04:35:31;;;;;;;6.57;4.00;;;;;;;8.92;50.08;101982.97;5095256;28;20071;-66
2023/04/27 04:37:59;;;;;;;5.82;3.38;;;;;;;8.98;49.63;101999.16;5102789;28;20112;-65
2023/04/27 04:40:27;;;;;;;7.50;3.30;;;;;;;8.98;49.76;102003.69;5103204;28;21230;-66
2023/04/27 04:42:55;;;;;;;4.72;3.58;;;;;;;8.97;49.95;102005.53;4749025;28;10000497;-66
2023/04/27 04:45:23;;;;;;;9.65;3.55;;;;;;;8.88;50.49;102001.28;5098325;28;20429;-66
2023/04/27 04:47:53;;;;;;;5.20;3.63;;;;;;;8.96;49.95;102019.97;5085471;28;20036;-66
2023/04/27 04:50:22;;;;;;;8.35;3.85;;;;;;;8.94;50.59;102018.47;5090298;28;20102;-66
2023/04/27 04:52:51;;;;;;;9.00;3.30;;;;;;;8.93;49.60;102014.13;5090728;28;20079;-66
2023/04/27 04:55:19;;;;;;;9.85;3.83;;;;;;;8.91;50.13;102010.81;5086256;28;20406;-65
2023/04/27 04:57:47;;;;;;;6.80;3.75;;;;;;;8.91;49.66;102016.16;5086146;28;20048;-66
2023/04/27 05:00:15;;;;;;;6.80;3.67;;;;;;;8.81;50.11;101998.50;5094893;28;20112;-65
2023/04/27 05:02:43;;;;;;;7.93;4.45;;;;;;;8.89;50.63;102020.88;5096641;28;20151;-66
2023/04/27 05:05:11;;;;;;;8.15;4.10;;;;;;;8.89;49.79;102018.19;5097976;28;20047;-67
2023/04/27 05:07:39;;;;;;;6.05;3.53;;;;;;;8.88;50.28;102017.34;5098982;28;20060;-65
2023/04/27 05:10:09;;;;;;;7.68;3.90;;;;;;;8.87;50.30;102017.53;5084745;28;20075;-65
2023/04/27 05:12:37;;;;;;;5.95;4.07;;;;;;;8.87;50.70;102014.84;5098241;28;20072;-66
2023/04/27 05:15:06;;;;;;;7.97;3.78;;;;;;;8.80;50.30;102018.25;5099194;28;20062;-66
2023/04/27 05:17:33;;;;;;;6.55;3.80;;;;;;;8.86;50.45;102026.59;5098841;28;20043;-65
2023/04/27 05:20:01;;;;;;;7.13;4.10;;;;;;;8.84;50.01;102024.09;5095222;28;20052;-66
2023/04/27 05:22:29;;;;;;;6.07;3.90;;;;;;;8.84;50.01;102032.16;5097488;28;20500;-65
2023/04/27 05:24:57;;;;;;;6.65;4.15;;;;;;;8.81;50.70;102022.63;5092027;28;20047;-65
2023/04/27 05:27:27;;;;;;;7.43;4.15;;;;;;;8.85;50.54;102025.75;5098272;28;20283;-61
2023/04/27 05:29:54;;;;;;;6.20;4.00;;;;;;;8.87;50.98;102028.25;5090819;28;20079;-66
2023/04/27 05:32:22;;;;;;;9.35;5.47;;;;;;;8.85;50.65;102033.81;5091766;28;20497;-66
2023/04/27 05:34:51;;;;;;;10.45;4.43;;;;;;;8.88;50.68;102038.81;5098474;28;20146;-67
2023/04/27 05:37:19;;;;;;;9.25;3.67;;;;;;;8.90;50.50;102034.09;5093742;28;20063;-67
2023/04/27 05:39:47;;;;;;;8.20;4.53;;;;;;;8.90;49.88;102033.25;5095243;28;20139;-66
2023/04/27 05:42:14;;;;;;;5.82;3.50;;;;;;;8.89;50.72;102039.63;5081174;28;20044;-67
2023/04/27 05:44:43;;;;;;;10.25;4.57;;;;;;;8.89;50.45;102040.47;5079650;28;20535;-66
2023/04/27 05:47:11;;;;;;;7.03;3.78;;;;;;;8.88;50.51;102032.63;5090382;28;20076;-67
2023/04/27 05:49:40;;;;;;;7.45;4.20;;;;;;;8.87;50.53;102039.81;5096838;28;20107;-67
2023/04/27 05:52:08;;;;;;;7.57;4.20;;;;;;;8.87;50.44;102047.03;5089438;28;20070;-66
2023/04/27 05:54:35;;;;;;;6.05;3.22;;;;;;;8.86;50.16;102040.84;5092315;28;20048;-65
2023/04/27 05:57:03;;;;;;;8.20;3.80;;;;;;;8.86;50.72;102051.56;5084395;28;20048;-65
2023/04/27 05:59:31;;;;;;;7.57;4.35;;;;;;;8.87;50.88;102053.22;5096808;28;20471;-65
2023/04/27 06:02:00;;;;;;;6.65;3.60;;;;;;;8.88;50.78;102040.66;5084581;28;20160;-66
2023/04/27 06:04:28;;;;;;;8.65;3.72;;;;;;;8.91;50.75;102042.97;5093959;28;20120;-64
2023/04/27 06:06:56;;;;;;;8.65;3.97;;;;;;;8.95;51.02;102044.28;5091974;28;20063;-65
2023/04/27 06:09:24;;;;;;;6.22;3.28;;;;;;;8.98;50.64;102044.75;5094208;28;20147;-66
2023/04/27 06:11:52;;;;;;;7.72;4.75;;;;;;;9.01;50.64;102047.06;5094011;28;20055;-65
2023/04/27 06:14:20;;;;;;;7.72;3.25;;;;;;;9.05;50.15;102051.03;5087232;28;20055;-66
2023/04/27 06:16:48;;;;;;;6.20;3.65;;;;;;;9.07;50.11;102043.66;5097384;28;20300;-66
2023/04/27 06:19:17;;;;;;;6.55;3.63;;;;;;;9.12;50.60;102040.44;5096636;28;20376;-67
2023/04/27 06:21:45;;;;;;;7.63;3.70;;;;;;;9.14;50.65;102033.03;5091660;28;20051;-67
2023/04/27 06:24:13;;;;;;;7.47;4.18;;;;;;;9.09;50.15;102022.84;5086074;28;20089;-65
2023/04/27 06:26:40;;;;;;;8.70;3.50;;;;;;;9.18;50.98;102028.13;5097607;28;20086;-66
2023/04/27 06:29:08;;;;;;;5.82;3.80;;;;;;;9.21;50.19;102027.75;5085053;28;20080;-65
2023/04/27 06:31:36;;;;;;;5.40;3.10;;;;;;;9.21;50.98;102028.59;5094369;28;20120;-65
2023/04/27 06:34:04;;;;;;;6.57;3.33;;;;;;;9.24;51.13;102033.59;5087118;28;20051;-65
2023/04/27 06:36:33;;;;;;;5.22;3.25;;;;;;;9.28;50.91;102037.56;5094072;28;20063;-64
2023/04/27 06:39:01;;;;;;;7.13;3.67;;;;;;;9.30;50.79;102042.75;5087428;28;20071;-65
2023/04/27 06:41:29;;;;;;;7.32;3.00;;;;;;;9.32;51.03;102048.78;5085966;28;20222;-67
2023/04/27 06:43:56;;;;;;;8.27;3.70;;;;;;;9.35;51.14;102046.56;5092127;28;20079;-63
2023/04/27 06:46:26;;;;;;;6.97;3.72;;;;;;;9.36;50.88;102039.34;5093611;28;20142;-64
2023/04/27 06:48:54;;;;;;;7.97;3.45;;;;;;;9.35;50.46;102043.88;5097048;28;20071;-61
2023/04/27 06:51:21;;;;;;;8.27;3.15;;;;;;;9.36;50.53;102040.16;5095176;28;20151;-61
2023/04/27 06:53:50;;;;;;;7.50;3.05;;;;;;;9.41;50.54;102040.44;5082539;28;20044;-62
2023/04/27 06:56:18;;;;;;;7.35;3.75;;;;;;;9.43;50.51;102035.72;5096341;28;20048;-62
2023/04/27 06:58:46;;;;;;;6.55;3.30;;;;;;;9.46;51.00;102043.41;5097323;28;20059;-64
2023/04/27 07:01:14;;;;;;;6.40;3.58;;;;;;;9.49;50.80;102047.56;5096766;28;20093;-62
2023/04/27 07:03:42;;;;;;;7.63;3.00;;;;;;;9.50;50.68;102043.03;5084728;28;20081;-60
2023/04/27 07:06:10;;;;;;;6.65;3.20;;;;;;;9.51;51.02;102039.34;5092159;28;20047;-62
2023/04/27 07:08:38;;;;;;;7.07;3.53;;;;;;;9.51;51.11;102040.16;5095167;28;20075;-61
2023/04/27 07:11:07;;;;;;;6.50;3.58;;;;;;;9.52;50.84;102033.78;5097530;28;20063;-60
2023/04/27 07:13:35;;;;;;;11.07;3.30;;;;;;;9.53;51.07;102031.94;5091462;28;20067;-60
2023/04/27 07:16:03;;;;;;;6.63;2.85;;;;;;;9.55;51.33;102027.22;5095551;28;20044;-60
2023/04/27 07:18:30;;;;;;;5.45;3.13;;;;;;;9.56;51.29;102023.50;5092160;28;20165;-61
2023/04/27 07:20:58;;;;;;;9.27;3.92;;;;;;;9.58;51.32;102026.84;5083804;28;20263;-60
2023/04/27 07:23:26;;;;;;;5.18;3.20;;;;;;;9.59;51.27;102034.72;5092527;28;20045;-60
2023/04/27 07:25:54;;;;;;;6.15;2.83;;;;;;;9.61;50.97;102034.53;5088384;28;20053;-60
2023/04/27 07:28:23;;;;;;;11.27;3.83;;;;;;;9.62;51.35;102036.19;5089977;28;20056;-61
2023/04/27 07:30:50;;;;;;;4.32;2.92;;;;;;;9.61;51.59;102038.03;5092079;28;20048;-61
2023/04/27 07:33:18;;;;;;;5.30;2.95;;;;;;;9.62;51.54;102033.50;5094165;28;20135;-63
2023/04/27 07:35:46;;;;;;;6.97;2.90;;;;;;;9.62;51.43;102037.03;5088818;28;20435;-61
2023/04/27 07:38:16;;;;;;;5.40;2.80;;;;;;;9.64;51.93;102043.03;5090820;28;20466;-60
2023/04/27 07:40:44;;;;;;;5.78;2.90;;;;;;;9.63;51.84;102040.53;5081738;28;20139;-60
2023/04/27 07:43:12;;;;;;;8.05;3.92;;;;;;;9.61;51.37;102032.66;5093896;28;20556;-61
2023/04/27 07:45:41;;;;;;;5.38;3.28;;;;;;;9.63;51.45;102037.84;5095900;28;20052;-62
2023/04/27 07:48:09;;;;;;;5.15;2.65;;;;;;;9.63;52.26;102027.13;5094282;28;20048;-60
2023/04/27 07:50:37;;;;;;;7.18;3.22;;;;;;;9.64;51.42;102037.66;5091012;28;20048;-63
2023/04/27 07:53:05;;;;;;;4.65;2.72;;;;;;;9.66;52.00;102029.44;5096711;28;20486;-65
2023/04/27 07:55:32;;;;;;;6.25;3.28;;;;;;;9.71;51.89;102035.06;5094748;28;20135;-67
2023/04/27 07:58:00;;;;;;;5.15;3.05;;;;;;;9.70;52.08;102022.66;5091574;28;20115;-62
2023/04/27 08:00:28;;;;;;;6.75;3.13;;;;;;;9.69;52.02;102029.06;5093807;28;20086;-62
2023/04/27 08:02:57;;;;;;;6.82;3.40;;;;;;;9.68;52.25;102025.53;5085520;28;20094;-62
2023/04/27 08:05:25;;;;;;;7.75;3.55;;;;;;;9.70;51.98;102019.97;5084004;28;20058;-64
2023/04/27 08:07:53;;;;;;;5.40;2.45;;;;;;;9.84;51.94;102026.34;5090725;28;20052;-64
2023/04/27 08:10:22;;;;;;;5.18;3.35;;;;;;;10.04;51.26;102024.72;5086005;28;20070;-64
2023/04/27 08:12:50;;;;;;;5.78;2.60;;;;;;;10.30;51.10;102026.91;5096040;28;20044;-65
2023/04/27 08:15:18;;;;;;;7.53;2.65;;;;;;;10.55;50.36;102021.94;5099063;28;20044;-63
2023/04/27 08:17:46;;;;;;;4.90;2.60;;;;;;;10.85;49.39;102028.81;5097037;28;20052;-62
2023/04/27 08:20:15;;;;;;;9.13;3.28;;;;;;;11.09;49.08;102030.25;5087710;28;20040;-65
2023/04/27 08:22:43;;;;;;;3.90;2.25;;;;;;;11.33;48.59;102031.66;5095575;28;20130;-63
2023/04/27 08:25:11;;;;;;;3.13;2.33;;;;;;;11.52;48.15;102020.16;5094305;28;20430;-64
2023/04/27 08:27:40;;;;;;;4.60;2.50;;;;;;;11.67;47.92;102023.56;5097875;28;20058;-63
2023/04/27 08:30:08;;;;;;;4.22;2.30;;;;;;;11.70;47.75;102015.06;5098450;28;20351;-63
2023/04/27 08:32:36;;;;;;;6.43;2.50;;;;;;;11.63;47.71;102003.44;5098618;28;20067;-62
2023/04/27 08:35:04;;;;;;;3.60;2.13;;;;;;;11.45;48.24;101997.75;5087923;28;20135;-63
2023/04/27 08:37:34;;;;;;;5.20;2.40;;;;;;;11.29;48.88;101992.72;5095417;28;20076;-63
2023/04/27 08:40:04;;;;;;;4.85;2.58;;;;;;;11.11;49.26;101989.69;5096159;28;20075;-63
2023/04/27 08:42:32;;;;;;;4.97;2.60;;;;;;;10.93;49.51;101991.03;5091000;28;20059;-64
2023/04/27 08:45:00;;;;;;;6.03;2.42;;;;;;;10.80;50.19;101990.94;5092170;28;20048;-61
2023/04/27 08:47:28;;;;;;;5.45;2.50;;;;;;;10.73;50.43;101988.19;5092522;28;20058;-62
2023/04/27 08:50:11;;;;;;;4.85;2.42;;;;;;;10.65;50.61;102000.94;5092474;28;20063;-62
2023/04/27 08:52:40;;;;;;;6.28;2.50;;;;;;;10.59;51.47;101990.97;5099444;28;20083;-62
2023/04/27 08:55:08;;;;;;;5.57;2.38;;;;;;;10.57;51.11;101995.69;5097694;28;20119;-61
2023/04/27 08:57:36;;;;;;;4.32;2.10;;;;;;;10.58;51.24;101997.38;5098995;28;20087;-62
2023/04/27 09:00:12;;;;;;;4.60;2.25;;;;;;;10.55;51.87;101993.22;5089673;28;20278;-62
2023/04/27 09:02:49;;;;;;;3.97;2.38;;;;;;;10.56;51.80;101996.72;5091804;28;20044;-61
2023/04/27 09:05:18;;;;;;;5.55;2.40;;;;;;;10.56;51.79;101996.72;5098577;28;20261;-60
2023/04/27 09:08:04;;;;;;;6.78;2.60;;;;;;;10.56;51.72;101992.19;5100157;28;20492;-62
2023/04/27 09:10:43;;;;;;;7.35;3.10;;;;;;;10.56;51.48;101986.81;5099473;28;20321;-62
2023/04/27 09:13:11;;;;;;;5.50;2.72;;;;;;;10.57;51.47;101988.47;5093256;28;20040;-62
2023/04/27 09:15:44;;;;;;;4.80;3.08;;;;;;;10.60;51.22;102001.53;5105077;28;20106;-62
2023/04/27 09:18:17;;;;;;;7.47;2.47;;;;;;;10.59;51.30;101981.03;5091088;28;20063;-63
2023/04/27 09:20:46;;;;;;;6.65;3.03;;;;;;;10.58;51.32;101983.91;5102423;28;20131;-62
2023/04/27 09:23:27;;;;;;;11.52;3.45;;;;;;;10.60;51.17;101984.56;5097711;28;20044;-62
2023/04/27 09:25:55;;;;;;;5.25;2.40;;;;;;;10.64;51.36;101983.16;5099860;28;20087;-62
2023/04/27 09:28:26;;;;;;;5.00;2.88;;;;;;;10.65;51.54;101985.63;5101027;28;20217;-62
2023/04/27 09:30:55;;;;;;;4.40;2.30;;;;;;;10.67;51.64;101986.28;5093286;28;20040;-62
2023/04/27 09:33:24;;;;;;;5.60;2.40;;;;;;;10.70;51.53;101982.38;5096416;28;20120;-61
2023/04/27 09:35:51;;;;;;;5.07;2.35;;;;;;;10.70;51.72;101975.13;5094917;28;20048;-62
2023/04/27 09:38:20;;;;;;;6.00;2.80;;;;;;;10.74;51.87;101980.97;5095062;28;20046;-62
2023/04/27 09:40:50;;;;;;;4.25;2.10;;;;;;;11.03;53.71;101974.53;5091040;28;20047;-62
2023/04/27 09:43:18;;;;;;;6.50;2.25;;;;;;;10.95;52.16;101980.91;5095430;28;20058;-62
2023/04/27 09:45:46;;;;;;;5.43;2.17;;;;;;;10.95;51.91;101969.31;5093560;28;20052;-62
2023/04/27 09:48:14;;;;;;;5.30;2.35;;;;;;;11.00;52.66;101970.38;5096287;28;20070;-62
2023/04/27 09:50:45;;;;;;;5.95;2.47;;;;;;;10.97;52.12;101965.41;5097082;28;20440;-62
2023/04/27 09:53:15;;;;;;;6.00;2.20;;;;;;;10.96;51.94;101966.44;5090503;28;20124;-61
2023/04/27 09:55:54;;;;;;;4.63;2.30;;;;;;;10.98;51.91;101967.06;5091188;28;20075;-61
2023/04/27 09:58:46;;;;;;;4.75;2.30;;;;;;;10.99;52.04;101962.50;5097712;28;20104;-62
2023/04/27 10:01:23;;;;;;;6.03;2.05;;;;;;;11.03;51.47;101966.47;5094944;28;20052;-62
2023/04/27 10:04:08;;;;;;;4.40;2.35;;;;;;;11.05;51.81;101959.88;5090212;28;20044;-62
2023/04/27 10:06:58;;;;;;;7.13;2.30;;;;;;;11.08;51.70;101959.47;5092737;28;20048;-62
2023/04/27 10:09:29;;;;;;;8.95;3.00;;;;;;;11.28;53.00;101961.44;5096654;28;20056;-63
2023/04/27 10:12:14;;;;;;;5.22;2.42;;;;;;;11.23;51.46;101958.50;5096500;28;20052;-62
2023/04/27 10:14:50;;;;;;;7.13;2.67;;;;;;;11.22;50.77;101956.84;5097976;28;20048;-61
2023/04/27 10:17:19;;;;;;;7.07;2.00;;;;;;;11.26;50.54;101950.88;5088406;28;20072;-62
2023/04/27 10:19:54;;;;;;;6.95;2.53;;;;;;;11.32;50.90;101954.63;5101621;28;20048;-62
2023/04/27 10:22:38;;;;;;;4.93;2.30;;;;;;;11.35;50.52;101965.81;5098329;28;20079;-64
2023/04/27 10:25:16;;;;;;;4.00;2.38;;;;;;;11.37;50.54;101963.78;5093503;28;20222;-64
2023/04/27 10:27:49;;;;;;;7.47;2.58;;;;;;;11.44;51.08;101962.97;5089738;28;20145;-62
2023/04/27 10:30:19;;;;;;;5.50;2.30;;;;;;;11.51;52.34;101961.97;5087507;28;20069;-65
2023/04/27 10:32:51;;;;;;;5.97;2.35;;;;;;;11.54;51.85;101969.66;5090783;28;20152;-63
2023/04/27 10:35:20;;;;;;;4.82;2.03;;;;;;;11.54;50.42;101969.66;5098632;28;20074;-64
2023/04/27 10:37:48;;;;;;;3.92;2.30;;;;;;;11.53;49.99;101965.28;5093702;28;20044;-64
2023/04/27 10:40:17;;;;;;;5.53;2.83;;;;;;;11.46;49.56;101947.44;5091744;28;20503;-65
2023/04/27 10:42:48;;;;;;;7.03;3.35;;;;;;;11.53;49.09;101962.59;5100695;28;20075;-64
2023/04/27 10:45:26;;;;;;;10.25;3.38;;;;;;;11.54;48.00;101939.19;5090667;28;20048;-66
2023/04/27 10:48:00;;;;;;;7.93;2.70;;;;;;;11.54;48.56;101934.63;5098747;28;20043;-65
2023/04/27 10:50:28;;;;;;;5.32;2.78;;;;;;;11.58;48.14;101935.06;5089500;28;20337;-64
2023/04/27 10:53:01;;;;;;;4.20;2.70;;;;;;;11.61;48.19;101940.06;5100652;28;20105;-65
2023/04/27 10:55:30;;;;;;;5.65;2.25;;;;;;;11.62;48.54;101929.06;5102087;28;20116;-64
2023/04/27 10:58:00;;;;;;;4.80;2.13;;;;;;;11.67;48.61;101932.00;5095857;28;20047;-64
2023/04/27 11:00:29;;;;;;;5.47;2.47;;;;;;;11.69;48.79;101916.47;5095575;28;20127;-65
2023/04/27 11:03:09;;;;;;;5.53;2.42;;;;;;;11.77;50.05;101926.25;5091984;28;20070;-65
2023/04/27 11:05:37;;;;;;;8.45;2.25;;;;;;;11.87;51.44;101917.78;5093187;28;20454;-65
2023/04/27 11:08:07;;;;;;;3.35;2.00;;;;;;;12.00;52.35;101913.25;5092478;28;20317;-64
2023/04/27 11:10:35;;;;;;;4.22;2.20;;;;;;;12.01;51.22;101912.22;5094218;28;20454;-65
2023/04/27 11:13:10;;;;;;;5.28;2.35;;;;;;;12.01;49.07;101911.38;5091881;28;20106;-64
2023/04/27 11:15:45;;;;;;;4.03;2.25;;;;;;;12.06;49.39;101900.81;5098750;28;20048;-66
2023/04/27 11:18:14;;;;;;;7.45;2.95;;;;;;;12.11;49.71;101897.50;5092253;28;20059;-63
2023/04/27 11:20:43;;;;;;;5.53;2.13;;;;;;;12.12;48.87;101900.00;5086915;28;20440;-66
2023/04/27 11:23:11;;;;;;;4.93;2.38;;;;;;;12.14;48.93;101891.69;5100044;28;20058;-66
2023/04/27 11:25:39;;;;;;;5.65;2.67;;;;;;;12.15;48.06;101904.13;5097063;28;20682;-66
2023/04/27 11:28:18;;;;;;;4.85;2.72;;;;;;;12.13;47.13;101903.53;5100298;28;20067;-65
2023/04/27 11:30:46;;;;;;;8.63;2.70;;;;;;;12.12;47.63;101891.91;5099793;28;20044;-66
2023/04/27 11:33:14;;;;;;;7.00;2.63;;;;;;;12.14;47.93;101894.38;5100137;28;20084;-66
2023/04/27 11:35:42;;;;;;;4.15;2.10;;;;;;;12.16;48.14;101903.91;5099264;28;20075;-67
2023/04/27 11:38:16;;;;;;;5.70;2.65;;;;;;;12.18;47.74;101895.63;5100425;28;20048;-67